createdAt,value
2023-03-15T00:00:29.751Z,34.80
2023-03-15T00:03:42.842Z,34.30
2023-03-15T00:06:55.842Z,34.10
2023-03-15T00:10:06.597Z,34.00
2023-03-15T00:13:18.694Z,34.20
2023-03-15T00:16:29.681Z,34.40
2023-03-15T00:19:38.930Z,34.50
2023-03-15T00:22:50.434Z,34.70
2023-03-15T00:26:02.073Z,34.70
2023-03-15T00:29:13.190Z,34.70
2023-03-15T00:32:22.277Z,34.80
2023-03-15T00:35:31.548Z,34.50
2023-03-15T00:38:41.037Z,34.60
2023-03-15T00:41:50.923Z,34.70
2023-03-15T00:45:00.237Z,35.10
2023-03-15T00:48:13.457Z,35.50
2023-03-15T00:51:23.481Z,35.30
2023-03-15T00:54:34.696Z,35.30
2023-03-15T00:57:49.596Z,35.50
2023-03-15T01:01:00.564Z,35.40
2023-03-15T01:04:15.198Z,35.30
2023-03-15T01:07:25.458Z,35.30
2023-03-15T01:10:33.558Z,35.30
2023-03-15T01:13:43.508Z,35.20
2023-03-15T01:16:53.161Z,35.30
2023-03-15T01:20:07.245Z,35.20
2023-03-15T01:23:18.080Z,35.20
2023-03-15T01:26:29.959Z,35.20
2023-03-15T01:29:40.914Z,35.20
2023-03-15T01:32:49.994Z,35.20
2023-03-15T01:36:06.338Z,35.10
2023-03-15T01:39:16.062Z,35.10
2023-03-15T01:42:29.434Z,35.10
2023-03-15T01:46:17.062Z,35.10
2023-03-15T01:49:27.833Z,35.00
2023-03-15T01:52:38.029Z,34.80
2023-03-15T01:55:48.581Z,34.80
2023-03-15T01:59:01.276Z,34.90
2023-03-15T02:02:15.446Z,35.00
2023-03-15T02:05:30.006Z,34.90
2023-03-15T02:08:43.345Z,34.70
2023-03-15T02:11:49.506Z,34.90
2023-03-15T02:14:58.738Z,34.90
2023-03-15T02:18:10.776Z,34.90
2023-03-15T02:21:31.088Z,34.70
2023-03-15T02:24:44.631Z,34.60
2023-03-15T02:27:54.750Z,34.80
2023-03-15T02:31:03.114Z,34.90
2023-03-15T02:34:17.254Z,34.80
2023-03-15T02:37:32.631Z,34.50
2023-03-15T02:40:43.517Z,34.60
2023-03-15T02:43:56.921Z,34.70
2023-03-15T02:47:11.090Z,34.90
2023-03-15T02:50:20.519Z,34.70
2023-03-15T02:53:30.077Z,34.60
2023-03-15T02:56:42.632Z,34.70
2023-03-15T02:59:52.006Z,34.80
2023-03-15T03:02:59.846Z,34.80
2023-03-15T03:06:12.056Z,34.60
2023-03-15T03:09:26.681Z,34.60
2023-03-15T03:12:38.355Z,34.70
2023-03-15T03:15:49.749Z,34.90
2023-03-15T03:19:03.396Z,34.80
2023-03-15T03:22:14.111Z,34.60
2023-03-15T03:25:27.469Z,34.60
2023-03-15T03:28:40.871Z,34.70
2023-03-15T03:31:48.884Z,34.80
2023-03-15T03:35:00.631Z,34.70
2023-03-15T03:38:10.890Z,34.60
2023-03-15T03:41:23.391Z,34.70
2023-03-15T03:44:32.885Z,34.70
2023-03-15T03:47:45.924Z,34.70
2023-03-15T03:50:56.790Z,34.60
2023-03-15T03:54:07.678Z,34.60
2023-03-15T03:57:19.840Z,34.90
2023-03-15T04:00:30.486Z,35.10
2023-03-15T04:03:42.193Z,35.30
2023-03-15T04:06:52.856Z,35.10
2023-03-15T04:10:05.366Z,35.30
2023-03-15T04:13:13.278Z,35.70
2023-03-15T04:16:27.037Z,35.60
2023-03-15T04:19:37.994Z,35.50
2023-03-15T04:23:00.803Z,35.30
2023-03-15T04:26:11.601Z,35.40
2023-03-15T04:29:23.148Z,35.40
2023-03-15T04:32:34.996Z,35.30
2023-03-15T04:35:46.082Z,35.00
2023-03-15T04:39:00.442Z,36.20
2023-03-15T04:42:14.759Z,37.00
2023-03-15T04:45:41.231Z,37.10
2023-03-15T04:48:49.252Z,36.60
2023-03-15T04:52:01.596Z,35.80
2023-03-15T04:55:13.859Z,36.10
2023-03-15T04:58:24.530Z,35.90
2023-03-15T05:01:37.568Z,36.00
2023-03-15T05:04:51.263Z,35.60
2023-03-15T05:08:00.542Z,35.40
2023-03-15T05:11:11.683Z,35.40
2023-03-15T05:14:20.669Z,35.50
2023-03-15T05:17:34.544Z,35.50
2023-03-15T05:20:46.468Z,35.20
2023-03-15T05:23:54.516Z,35.10
2023-03-15T05:27:06.170Z,35.20
2023-03-15T05:30:19.572Z,35.30
2023-03-15T05:33:32.210Z,35.20
2023-03-15T05:36:44.819Z,34.90
2023-03-15T05:39:53.585Z,35.00
2023-03-15T05:43:05.350Z,35.00
2023-03-15T05:46:14.650Z,35.10
2023-03-15T05:49:25.579Z,35.00
2023-03-15T05:52:36.583Z,34.90
2023-03-15T05:55:50.007Z,34.80
2023-03-15T05:58:59.593Z,34.40
2023-03-15T06:02:11.898Z,34.50
2023-03-15T06:05:21.910Z,34.50
2023-03-15T06:08:31.166Z,34.50
2023-03-15T06:11:42.185Z,34.60
2023-03-15T06:14:53.068Z,34.70
2023-03-15T06:18:03.723Z,34.70
2023-03-15T06:21:13.773Z,34.70
2023-03-15T06:24:27.484Z,34.70
2023-03-15T06:27:39.419Z,34.40
2023-03-15T06:30:48.796Z,34.40
2023-03-15T06:33:59.470Z,34.40
2023-03-15T06:37:11.731Z,34.40
2023-03-15T06:40:23.653Z,34.30
2023-03-15T06:43:35.462Z,34.30
2023-03-15T06:46:45.497Z,34.50
2023-03-15T06:49:56.984Z,34.50
2023-03-15T06:53:07.368Z,34.60
2023-03-15T06:56:19.808Z,34.30
2023-03-15T06:59:31.674Z,34.40
2023-03-15T07:02:43.329Z,34.40
2023-03-15T07:05:54.991Z,34.40
2023-03-15T07:09:06.848Z,34.40
2023-03-15T07:12:15.384Z,34.40
2023-03-15T07:15:26.013Z,35.20
2023-03-15T07:18:35.960Z,34.60
2023-03-15T07:21:48.102Z,34.20
2023-03-15T07:24:57.843Z,34.20
2023-03-15T07:28:08.445Z,34.30
2023-03-15T07:31:20.870Z,34.30
2023-03-15T07:34:32.567Z,34.40
2023-03-15T07:37:44.598Z,34.40
2023-03-15T07:40:52.972Z,34.50
2023-03-15T07:44:05.907Z,34.50
2023-03-15T07:47:19.356Z,34.10
2023-03-15T07:50:26.154Z,34.30
2023-03-15T07:53:37.792Z,34.40
2023-03-15T07:56:47.660Z,34.30
2023-03-15T07:59:56.705Z,34.30
2023-03-15T08:03:08.987Z,34.50
2023-03-15T08:06:17.726Z,34.50
2023-03-15T08:09:28.391Z,34.60
2023-03-15T08:12:41.701Z,34.50
2023-03-15T08:15:51.918Z,34.20
2023-03-15T08:19:02.577Z,34.20
2023-03-15T08:22:15.929Z,34.30
2023-03-15T08:25:28.033Z,34.30
2023-03-15T08:28:40.641Z,34.30
2023-03-15T08:31:50.803Z,34.50
2023-03-15T08:35:05.000Z,34.60
2023-03-15T08:38:16.356Z,34.70
2023-03-15T08:41:26.916Z,34.50
2023-03-15T08:44:36.458Z,34.20
2023-03-15T08:47:45.574Z,34.30
2023-03-15T08:50:56.232Z,34.30
2023-03-15T08:54:09.405Z,34.40
2023-03-15T08:57:19.919Z,34.50
2023-03-15T09:00:34.010Z,34.60
2023-03-15T09:03:45.503Z,34.60
2023-03-15T09:06:55.500Z,34.50
2023-03-15T09:10:07.162Z,34.30
2023-03-15T09:13:19.691Z,34.40
2023-03-15T09:16:30.897Z,34.30
2023-03-15T09:19:42.085Z,34.50
2023-03-15T09:22:54.555Z,34.60
2023-03-15T09:26:06.880Z,34.70
2023-03-15T09:29:19.098Z,34.80
2023-03-15T09:32:28.386Z,34.80
2023-03-15T09:35:40.798Z,34.40
2023-03-15T09:38:51.631Z,34.40
2023-03-15T09:42:01.265Z,34.60
2023-03-15T09:45:15.968Z,35.00
2023-03-15T09:48:27.703Z,35.10
2023-03-15T09:51:43.488Z,35.30
2023-03-15T09:54:57.238Z,35.40
2023-03-15T09:58:08.152Z,35.40
2023-03-15T10:01:20.951Z,34.80
2023-03-15T10:04:36.265Z,34.80
2023-03-15T10:07:46.439Z,34.90
2023-03-15T10:10:57.294Z,35.10
2023-03-15T10:14:15.839Z,35.20
2023-03-15T10:17:27.464Z,35.30
2023-03-15T10:20:37.308Z,35.50
2023-03-15T10:23:51.217Z,35.30
2023-03-15T10:27:02.177Z,34.90
2023-03-15T10:30:21.093Z,34.70
2023-03-15T10:33:34.110Z,35.30
2023-03-15T10:36:49.879Z,35.00
2023-03-15T10:40:03.504Z,35.10
2023-03-15T10:43:23.200Z,35.10
2023-03-15T10:46:34.706Z,35.00
2023-03-15T10:49:46.580Z,35.10
2023-03-15T10:52:57.502Z,35.10
2023-03-15T10:56:08.410Z,34.80
2023-03-15T10:59:24.438Z,34.40
2023-03-15T11:02:36.641Z,34.60
2023-03-15T11:05:51.240Z,34.80
2023-03-15T11:09:06.737Z,35.00
2023-03-15T11:12:25.778Z,35.00
2023-03-15T11:15:37.631Z,35.00
2023-03-15T11:18:50.874Z,35.00
2023-03-15T11:22:01.322Z,34.90
2023-03-15T11:25:20.042Z,34.80
2023-03-15T11:28:30.916Z,34.80
2023-03-15T11:31:40.735Z,34.80
2023-03-15T11:34:50.684Z,34.60
2023-03-15T11:38:14.709Z,34.50
2023-03-15T11:41:19.301Z,34.50
2023-03-15T11:44:31.859Z,34.40
2023-03-15T11:47:49.940Z,34.40
2023-03-15T11:51:00.669Z,34.40
2023-03-15T11:54:18.992Z,34.40
2023-03-15T11:57:47.716Z,34.30
2023-03-15T12:01:03.676Z,34.30
2023-03-15T12:04:46.710Z,33.90
2023-03-15T12:08:13.945Z,33.80
2023-03-15T12:11:46.196Z,33.90
2023-03-15T12:15:04.768Z,34.40
2023-03-15T12:18:26.372Z,34.40
2023-03-15T12:21:37.546Z,34.50
2023-03-15T12:24:48.500Z,34.40
2023-03-15T12:28:01.351Z,34.30
2023-03-15T12:31:15.495Z,33.90
2023-03-15T12:34:35.147Z,33.80
2023-03-15T12:37:48.638Z,33.90
2023-03-15T12:41:00.385Z,34.10
2023-03-15T12:44:31.309Z,34.40
2023-03-15T12:47:52.497Z,34.30
2023-03-15T12:54:42.409Z,34.20
2023-03-15T12:57:54.998Z,33.80
2023-03-15T13:01:07.069Z,33.60
2023-03-15T13:04:17.125Z,33.80
2023-03-15T13:07:36.877Z,33.80
2023-03-15T13:11:03.832Z,34.50
2023-03-15T13:14:25.351Z,34.80
2023-03-15T13:17:44.207Z,34.70
2023-03-15T13:21:06.845Z,34.50
2023-03-15T13:24:20.363Z,33.70
2023-03-15T13:27:38.213Z,33.60
2023-03-15T13:30:53.080Z,33.50
2023-03-15T13:34:09.018Z,33.80
2023-03-15T13:37:28.100Z,33.40
2023-03-15T13:40:40.018Z,33.70
2023-03-15T13:43:50.401Z,33.30
2023-03-15T13:47:02.921Z,33.60
2023-03-15T13:50:17.694Z,33.40
2023-03-15T13:53:48.264Z,33.10
2023-03-15T13:56:49.690Z,33.00
2023-03-15T13:59:57.117Z,32.50
2023-03-15T14:03:08.200Z,32.40
2023-03-15T14:06:26.349Z,32.10
2023-03-15T14:09:38.812Z,32.20
2023-03-15T14:12:52.811Z,32.30
2023-03-15T14:16:06.976Z,32.20
2023-03-15T14:19:24.782Z,32.10
2023-03-15T14:22:37.548Z,32.10
2023-03-15T14:25:46.867Z,32.20
2023-03-15T14:29:00.649Z,32.20
2023-03-15T14:32:13.545Z,32.80
2023-03-15T14:35:24.067Z,32.80
2023-03-15T14:38:37.951Z,32.60
2023-03-15T14:41:49.204Z,32.80
2023-03-15T14:45:02.902Z,31.90
2023-03-15T14:48:23.056Z,31.70
2023-03-15T14:51:34.795Z,31.60
2023-03-15T14:54:46.678Z,32.00
2023-03-15T14:57:57.489Z,31.90
2023-03-15T15:01:11.568Z,31.60
2023-03-15T15:04:24.201Z,31.70
2023-03-15T15:07:32.637Z,31.60
2023-03-15T15:10:43.216Z,31.50
2023-03-15T15:13:56.416Z,31.50
2023-03-15T15:17:06.638Z,31.60
2023-03-15T15:20:17.764Z,31.50
2023-03-15T15:23:29.596Z,31.10
2023-03-15T15:26:37.245Z,31.40
2023-03-15T15:29:48.162Z,31.40
2023-03-15T15:33:00.972Z,31.40
2023-03-15T15:36:15.314Z,31.00
2023-03-15T15:39:27.822Z,30.90
2023-03-15T15:42:39.414Z,30.90
2023-03-15T15:45:48.717Z,30.90
2023-03-15T15:48:59.697Z,31.00
2023-03-15T15:52:12.860Z,31.10
2023-03-15T15:55:19.397Z,31.10
2023-03-15T15:58:28.252Z,31.80
2023-03-15T16:01:49.262Z,31.00
2023-03-15T16:04:52.433Z,31.00
2023-03-15T16:08:05.954Z,31.10
2023-03-15T16:11:17.079Z,31.10
2023-03-15T16:14:26.807Z,31.00
2023-03-15T16:17:38.320Z,30.90
2023-03-15T16:20:48.871Z,30.90
2023-03-15T16:24:01.886Z,31.00
2023-03-15T16:27:14.072Z,30.70
2023-03-15T16:30:26.657Z,30.60
2023-03-15T16:33:38.627Z,30.50
2023-03-15T16:36:54.835Z,30.60
2023-03-15T16:40:06.895Z,30.60
2023-03-15T16:43:19.521Z,31.50
2023-03-15T16:46:29.690Z,31.80
2023-03-15T16:49:39.809Z,31.60
2023-03-15T16:52:50.325Z,31.40
2023-03-15T16:56:01.907Z,31.20
2023-03-15T16:59:12.996Z,31.20
2023-03-15T17:02:24.545Z,31.00
2023-03-15T17:05:35.888Z,31.00
2023-03-15T17:08:47.483Z,30.90
2023-03-15T17:11:58.455Z,30.90
2023-03-15T17:15:09.012Z,31.00
2023-03-15T17:18:24.342Z,31.20
2023-03-15T17:21:36.538Z,31.00
2023-03-15T17:24:49.263Z,31.10
2023-03-15T17:27:59.086Z,31.00
2023-03-15T17:31:24.494Z,30.90
2023-03-15T17:34:24.530Z,31.00
2023-03-15T17:37:35.929Z,31.00
2023-03-15T17:40:48.366Z,31.10
2023-03-15T17:43:57.420Z,31.10
2023-03-15T17:47:09.549Z,31.00
2023-03-15T17:50:20.692Z,30.70
2023-03-15T17:53:30.664Z,30.80
2023-03-15T17:56:40.942Z,30.80
2023-03-15T17:59:51.882Z,30.80
2023-03-15T18:03:02.142Z,30.90
2023-03-15T18:06:15.300Z,31.10
2023-03-15T18:09:23.833Z,31.20
2023-03-15T18:12:34.953Z,31.20
2023-03-15T18:15:46.225Z,31.10
2023-03-15T18:18:57.658Z,30.90
2023-03-15T18:22:09.294Z,30.90
2023-03-15T18:25:21.829Z,30.90
2023-03-15T18:28:33.817Z,30.90
2023-03-15T18:31:47.137Z,31.00
2023-03-15T18:34:57.406Z,31.00
2023-03-15T18:38:08.024Z,31.10
2023-03-15T18:41:21.306Z,31.00
2023-03-15T18:44:30.551Z,31.10
2023-03-15T18:47:41.091Z,31.30
2023-03-15T18:50:50.165Z,31.30
2023-03-15T18:54:00.784Z,31.30
2023-03-15T18:57:13.247Z,31.10
2023-03-15T19:00:29.660Z,31.10
2023-03-15T19:03:39.363Z,31.10
2023-03-15T19:06:51.649Z,31.10
2023-03-15T19:10:03.233Z,31.10
2023-03-15T19:13:12.394Z,31.10
2023-03-15T19:16:24.913Z,31.20
2023-03-15T19:19:34.957Z,31.30
2023-03-15T19:22:47.586Z,31.40
2023-03-15T19:25:57.950Z,31.40
2023-03-15T19:29:09.557Z,31.70
2023-03-15T19:32:22.829Z,31.70
2023-03-15T19:35:33.454Z,31.70
2023-03-15T19:38:47.065Z,31.40
2023-03-15T19:41:55.756Z,31.40
2023-03-15T19:45:06.912Z,31.30
2023-03-15T19:48:17.767Z,31.40
2023-03-15T19:51:29.484Z,31.40
2023-03-15T19:54:42.521Z,31.50
2023-03-15T19:57:53.941Z,31.60
2023-03-15T20:01:08.157Z,31.60
2023-03-15T20:04:15.638Z,31.70
2023-03-15T20:07:26.739Z,31.70
2023-03-15T20:10:35.357Z,31.90
2023-03-15T20:13:44.513Z,31.90
2023-03-15T20:16:55.267Z,31.80
2023-03-15T20:20:06.161Z,31.90
2023-03-15T20:23:16.304Z,31.90
2023-03-15T20:26:26.934Z,31.80
2023-03-15T20:32:52.608Z,31.90
2023-03-15T20:36:04.525Z,31.90
2023-03-15T20:39:13.351Z,31.80
2023-03-15T20:42:24.795Z,31.80
2023-03-15T20:45:34.996Z,31.90
2023-03-15T20:48:47.296Z,31.90
2023-03-15T20:51:57.348Z,31.90
2023-03-15T20:55:07.655Z,31.80
2023-03-15T20:58:19.303Z,31.90
2023-03-15T21:01:29.937Z,31.90
2023-03-15T21:04:41.532Z,32.00
2023-03-15T21:07:51.256Z,32.00
2023-03-15T21:11:02.265Z,31.90
2023-03-15T21:14:11.974Z,32.00
2023-03-15T21:17:23.505Z,32.00
2023-03-15T21:20:32.789Z,32.10
2023-03-15T21:23:42.673Z,32.00
2023-03-15T21:26:54.928Z,32.10
2023-03-15T21:30:05.203Z,32.10
2023-03-15T21:33:14.950Z,32.10
2023-03-15T21:36:26.016Z,32.20
2023-03-15T21:39:37.419Z,32.20
2023-03-15T21:42:48.897Z,32.20
2023-03-15T21:46:03.535Z,32.20
2023-03-15T21:49:14.500Z,32.30
2023-03-15T21:52:26.779Z,32.30
2023-03-15T21:55:38.491Z,32.30
2023-03-15T21:58:45.919Z,32.30
2023-03-15T22:01:57.418Z,32.40
2023-03-15T22:05:07.461Z,32.40
2023-03-15T22:08:17.664Z,32.40
2023-03-15T22:11:28.311Z,32.30
2023-03-15T22:14:38.852Z,32.60
2023-03-15T22:17:48.738Z,32.60
2023-03-15T22:20:57.128Z,32.50
2023-03-15T22:24:04.402Z,32.60
2023-03-15T22:27:13.375Z,32.80
2023-03-15T22:30:24.160Z,32.70
2023-03-15T22:33:35.335Z,32.90
2023-03-15T22:36:44.858Z,33.00
2023-03-15T22:39:54.562Z,32.90
2023-03-15T22:43:04.286Z,33.50
2023-03-15T22:46:17.779Z,33.10
2023-03-15T22:49:26.536Z,32.10
2023-03-15T22:52:37.458Z,32.00
2023-03-15T22:55:48.214Z,32.30
2023-03-15T22:58:58.392Z,32.40
2023-03-15T23:02:08.721Z,32.60
2023-03-15T23:05:21.163Z,33.20
2023-03-15T23:08:49.487Z,32.70
2023-03-15T23:12:02.915Z,32.90
2023-03-15T23:15:16.705Z,33.00
2023-03-15T23:18:26.719Z,32.80
2023-03-15T23:21:34.805Z,32.80
2023-03-15T23:24:46.693Z,32.60
2023-03-15T23:27:58.284Z,32.40
2023-03-15T23:31:10.450Z,32.00
2023-03-15T23:34:19.599Z,32.20
2023-03-15T23:37:30.782Z,32.10
2023-03-15T23:40:42.450Z,32.20
2023-03-15T23:43:51.775Z,32.50
2023-03-15T23:47:04.449Z,32.50
2023-03-15T23:50:18.138Z,32.60
2023-03-15T23:53:28.382Z,32.60
2023-03-15T23:56:40.888Z,32.60
2023-03-15T23:59:51.653Z,32.70
